createdAt,value
2022-09-23T00:01:05.924Z,101287.05
2022-09-23T00:03:33.337Z,101291.23
2022-09-23T00:06:11.952Z,101286.21
2022-09-23T00:08:39.479Z,101281.47
2022-09-23T00:11:08.267Z,101283.68
2022-09-23T00:13:36.166Z,101282.24
2022-09-23T00:16:11.708Z,101278.67
2022-09-23T00:18:38.521Z,101276.19
2022-09-23T00:21:11.680Z,101276.61
2022-09-23T00:23:40.499Z,101271.73
2022-09-23T00:26:08.776Z,101274.95
2022-09-23T00:28:36.313Z,101271.52
2022-09-23T00:31:06.608Z,101271.77
2022-09-23T00:33:33.686Z,101271.62
2022-09-23T00:36:01.928Z,101269.84
2022-09-23T00:38:29.108Z,101267.76
2022-09-23T00:40:56.439Z,101263.88
2022-09-23T00:43:49.769Z,101260.21
2022-09-23T00:46:39.708Z,101259.41
2022-09-23T00:49:27.363Z,101255.32
2022-09-23T00:52:06.641Z,101254.17
2022-09-23T00:54:33.998Z,101252.95
2022-09-23T00:57:01.587Z,101250.03
2022-09-23T00:59:29.132Z,101250.45
2022-09-23T01:01:57.860Z,101250.75
2022-09-23T01:04:26.837Z,101246.31
2022-09-23T01:06:53.617Z,101245.81
2022-09-23T01:09:21.965Z,101242.23
2022-09-23T01:11:52.374Z,101238.67
2022-09-23T01:14:45.492Z,101239.00
2022-09-23T01:17:40.046Z,101236.58
2022-09-23T01:20:31.132Z,101233.64
2022-09-23T01:23:22.381Z,101230.07
2022-09-23T01:26:00.018Z,101227.02
2022-09-23T01:28:52.101Z,101220.86
2022-09-23T01:31:29.277Z,101219.77
2022-09-23T01:33:58.734Z,101215.89
2022-09-23T01:36:47.089Z,101210.91
2022-09-23T01:39:24.312Z,101209.77
2022-09-23T01:42:04.181Z,101209.72
2022-09-23T01:44:38.633Z,101211.64
2022-09-23T01:47:10.723Z,101205.32
2022-09-23T01:49:50.878Z,101204.21
2022-09-23T01:52:25.221Z,101205.85
2022-09-23T01:55:01.421Z,101204.64
2022-09-23T01:57:33.686Z,101203.79
2022-09-23T02:00:18.407Z,101199.55
2022-09-23T02:03:04.873Z,101202.29
2022-09-23T02:05:56.917Z,101200.78
2022-09-23T02:08:34.558Z,101196.82
2022-09-23T02:11:22.029Z,101196.63
2022-09-23T02:14:03.970Z,101193.85
2022-09-23T02:16:44.673Z,101190.96
2022-09-23T02:19:17.694Z,101188.88
2022-09-23T02:21:50.377Z,101193.84
2022-09-23T02:24:25.814Z,101187.20
2022-09-23T02:26:59.729Z,101182.80
2022-09-23T02:29:37.427Z,101182.67
2022-09-23T02:32:15.783Z,101180.14
2022-09-23T02:35:00.943Z,101181.40
2022-09-23T02:37:45.862Z,101174.81
2022-09-23T02:40:23.595Z,101176.25
2022-09-23T02:43:05.145Z,101173.70
2022-09-23T02:45:31.971Z,101171.02
2022-09-23T02:48:05.589Z,101168.77
2022-09-23T02:50:33.820Z,101173.02
2022-09-23T02:53:01.050Z,101167.69
2022-09-23T02:55:32.526Z,101167.85
2022-09-23T02:58:03.563Z,101164.70
2022-09-23T03:01:05.766Z,101162.35
2022-09-23T03:03:53.783Z,101161.75
2022-09-23T03:06:43.389Z,101160.47
2022-09-23T03:09:33.272Z,101156.29
2022-09-23T03:12:15.987Z,101156.47
2022-09-23T03:14:55.062Z,101155.55
2022-09-23T03:17:31.740Z,101153.04
2022-09-23T03:20:12.651Z,101155.33
2022-09-23T03:22:51.516Z,101152.21
2022-09-23T03:25:25.574Z,101148.36
2022-09-23T03:27:57.912Z,101144.33
2022-09-23T03:30:26.441Z,101141.52
2022-09-23T03:32:55.883Z,101142.77
2022-09-23T03:35:26.152Z,101138.63
2022-09-23T03:38:00.499Z,101134.65
2022-09-23T03:40:32.539Z,101136.42
2022-09-23T03:43:01.383Z,101134.88
2022-09-23T03:45:32.211Z,101130.25
2022-09-23T03:47:58.930Z,101131.16
2022-09-23T03:50:25.738Z,101131.17
2022-09-23T03:52:52.541Z,101127.98
2022-09-23T03:55:19.500Z,101123.65
2022-09-23T03:57:46.463Z,101121.59
2022-09-23T04:00:14.719Z,101121.48
2022-09-23T04:02:41.556Z,101119.09
2022-09-23T04:05:09.308Z,101117.89
2022-09-23T04:07:35.838Z,101113.64
2022-09-23T04:10:02.554Z,101113.29
2022-09-23T04:12:29.121Z,101110.67
2022-09-23T04:14:55.643Z,101109.35
2022-09-23T04:17:22.227Z,101108.94
2022-09-23T04:19:48.927Z,101105.88
2022-09-23T04:22:15.420Z,101104.05
2022-09-23T04:24:41.959Z,101097.95
2022-09-23T04:27:08.590Z,101096.77
2022-09-23T04:29:35.213Z,101093.20
2022-09-23T04:32:01.928Z,101090.82
2022-09-23T04:34:28.690Z,101090.89
2022-09-23T04:36:55.479Z,101090.15
2022-09-23T04:39:22.437Z,101091.23
2022-09-23T04:41:49.217Z,101089.99
2022-09-23T04:44:16.038Z,101091.29
2022-09-23T04:46:43.878Z,101090.08
2022-09-23T04:49:10.876Z,101090.33
2022-09-23T04:51:37.863Z,101089.23
2022-09-23T04:54:04.630Z,101088.38
2022-09-23T04:56:34.142Z,101087.20
2022-09-23T04:59:01.686Z,101089.78
2022-09-23T05:01:31.735Z,101087.16
2022-09-23T05:04:05.224Z,101083.05
2022-09-23T05:06:37.130Z,101084.86
2022-09-23T05:09:07.202Z,101087.39
2022-09-23T05:11:34.202Z,101085.84
2022-09-23T05:14:01.331Z,101085.18
2022-09-23T05:16:27.999Z,101085.77
2022-09-23T05:18:54.943Z,101080.48
2022-09-23T05:21:23.292Z,101084.31
2022-09-23T05:23:55.048Z,101087.75
2022-09-23T05:26:25.212Z,101082.73
2022-09-23T05:28:52.599Z,101085.27
2022-09-23T05:31:24.451Z,101084.31
2022-09-23T05:33:57.305Z,101081.16
2022-09-23T05:36:25.206Z,101085.80
2022-09-23T05:38:52.559Z,101081.45
2022-09-23T05:41:23.044Z,101083.20
2022-09-23T05:43:51.715Z,101080.42
2022-09-23T05:46:27.809Z,101081.36
2022-09-23T05:49:01.188Z,101076.06
2022-09-23T05:51:31.114Z,101074.88
2022-09-23T05:53:59.098Z,101073.59
2022-09-23T05:56:27.787Z,101073.83
2022-09-23T05:58:56.354Z,101070.76
2022-09-23T06:01:25.938Z,101073.52
2022-09-23T06:03:54.734Z,101070.92
2022-09-23T06:06:27.265Z,101077.99
2022-09-23T06:08:53.953Z,101081.85
2022-09-23T06:11:21.541Z,101079.66
2022-09-23T06:13:49.286Z,101080.02
2022-09-23T06:16:16.558Z,101081.98
2022-09-23T06:18:45.186Z,101082.52
2022-09-23T06:21:16.739Z,101080.86
2022-09-23T06:23:44.715Z,101078.77
2022-09-23T06:26:13.489Z,101082.29
2022-09-23T06:28:41.534Z,101080.33
2022-09-23T06:31:13.521Z,101079.23
2022-09-23T06:33:42.500Z,101076.98
2022-09-23T06:36:10.239Z,101079.20
2022-09-23T06:38:41.332Z,101075.69
2022-09-23T06:41:08.112Z,101075.73
2022-09-23T06:43:34.913Z,101074.64
2022-09-23T06:46:06.133Z,101074.27
2022-09-23T06:48:35.990Z,101074.54
2022-09-23T06:51:12.182Z,101073.02
2022-09-23T06:53:39.432Z,101077.45
2022-09-23T06:56:08.080Z,101077.08
2022-09-23T06:58:36.097Z,101079.21
2022-09-23T07:01:16.129Z,101075.93
2022-09-23T07:03:43.909Z,101073.86
2022-09-23T07:06:10.840Z,101069.13
2022-09-23T07:08:37.685Z,101066.67
2022-09-23T07:11:07.909Z,101068.44
2022-09-23T07:13:34.906Z,101065.27
2022-09-23T07:16:02.926Z,101071.62
2022-09-23T07:18:36.806Z,101069.55
2022-09-23T07:21:15.815Z,101069.09
2022-09-23T07:23:47.993Z,101068.90
2022-09-23T07:26:15.714Z,101067.81
2022-09-23T07:28:42.955Z,101064.62
2022-09-23T07:31:20.000Z,101062.77
2022-09-23T07:33:57.138Z,101066.23
2022-09-23T07:36:24.817Z,101064.17
2022-09-23T07:38:51.610Z,101062.69
2022-09-23T07:41:19.580Z,101062.77
2022-09-23T07:43:47.219Z,101064.50
2022-09-23T07:46:17.625Z,101064.63
2022-09-23T07:48:45.838Z,101066.03
2022-09-23T07:51:18.128Z,101065.34
2022-09-23T07:53:48.225Z,101067.02
2022-09-23T07:56:15.370Z,101063.02
2022-09-23T07:58:42.202Z,101066.39
2022-09-23T08:01:10.923Z,101057.52
2022-09-23T08:03:38.795Z,101054.44
2022-09-23T08:06:12.969Z,101055.70
2022-09-23T08:08:43.579Z,101058.39
2022-09-23T08:11:12.502Z,101056.52
2022-09-23T08:13:39.526Z,101059.22
2022-09-23T08:16:06.873Z,101057.61
2022-09-23T08:18:34.193Z,101058.60
2022-09-23T08:21:01.224Z,101058.39
2022-09-23T08:23:27.983Z,101057.89
2022-09-23T08:26:02.478Z,101058.16
2022-09-23T08:28:29.375Z,101053.53
2022-09-23T08:30:56.486Z,101051.52
2022-09-23T08:33:24.062Z,101047.44
2022-09-23T08:35:51.710Z,101047.38
2022-09-23T08:38:18.844Z,101046.52
2022-09-23T08:40:49.354Z,101048.77
2022-09-23T08:43:28.230Z,101051.95
2022-09-23T08:45:57.306Z,101053.65
2022-09-23T08:48:34.726Z,101052.85
2022-09-23T08:51:11.168Z,101049.84
2022-09-23T08:53:38.181Z,101049.13
2022-09-23T08:56:14.785Z,101049.92
2022-09-23T08:58:53.381Z,101047.02
2022-09-23T09:01:38.487Z,101043.70
2022-09-23T09:04:15.168Z,101041.69
2022-09-23T09:06:52.803Z,101044.55
2022-09-23T09:09:29.029Z,101043.64
2022-09-23T09:12:07.208Z,101037.26
2022-09-23T09:14:50.182Z,101038.04
2022-09-23T09:17:25.404Z,101040.95
2022-09-23T09:20:03.387Z,101040.39
2022-09-23T09:22:48.616Z,101036.54
2022-09-23T09:25:36.417Z,101038.25
2022-09-23T09:28:13.887Z,101034.20
2022-09-23T09:30:43.184Z,101033.38
2022-09-23T09:33:15.752Z,101029.74
2022-09-23T09:36:01.929Z,101031.34
2022-09-23T09:38:28.667Z,101026.67
2022-09-23T09:41:01.664Z,101024.96
2022-09-23T09:43:28.180Z,101025.45
2022-09-23T09:45:57.873Z,101019.15
2022-09-23T09:48:50.355Z,101015.92
2022-09-23T09:51:25.642Z,101018.17
2022-09-23T09:53:52.749Z,101014.39
2022-09-23T09:56:33.169Z,101008.48
2022-09-23T09:59:13.390Z,101003.35
2022-09-23T10:01:39.934Z,101002.96
2022-09-23T10:04:22.563Z,101002.63
2022-09-23T10:07:09.455Z,101001.72
2022-09-23T10:09:37.900Z,100999.27
2022-09-23T10:12:13.056Z,100988.76
2022-09-23T10:14:39.868Z,100990.08
2022-09-23T10:17:07.880Z,100990.52
2022-09-23T10:19:43.898Z,100985.30
2022-09-23T10:22:18.905Z,100980.83
2022-09-23T10:24:51.156Z,100976.73
2022-09-23T10:27:31.417Z,100978.23
2022-09-23T10:30:04.632Z,100981.44
2022-09-23T10:32:37.566Z,100978.46
2022-09-23T10:35:24.480Z,100971.83
2022-09-23T10:37:54.708Z,100975.23
2022-09-23T10:40:57.987Z,100970.90
2022-09-23T10:44:01.427Z,100967.29
2022-09-23T10:46:39.159Z,100963.96
2022-09-23T10:49:43.820Z,100964.87
2022-09-23T10:52:45.066Z,100959.70
2022-09-23T10:55:36.773Z,100954.30
2022-09-23T10:58:26.753Z,100958.06
2022-09-23T11:01:08.890Z,100956.48
2022-09-23T11:03:58.455Z,100959.19
2022-09-23T11:06:34.226Z,100953.37
2022-09-23T11:09:17.111Z,100950.17
2022-09-23T11:11:46.576Z,100940.23
2022-09-23T11:14:59.216Z,100937.15
2022-09-23T11:17:49.649Z,100939.32
2022-09-23T11:20:23.007Z,100933.60
2022-09-23T11:23:18.600Z,100928.79
2022-09-23T11:26:09.531Z,100929.33
2022-09-23T11:29:04.678Z,100929.13
2022-09-23T11:32:17.084Z,100921.78
2022-09-23T11:35:04.032Z,100921.65
2022-09-23T11:37:37.516Z,100918.16
2022-09-23T11:40:17.213Z,100910.64
2022-09-23T11:42:59.282Z,100907.24
2022-09-23T11:45:32.579Z,100904.95
2022-09-23T11:48:15.684Z,100904.01
2022-09-23T11:50:54.657Z,100902.02
2022-09-23T11:53:32.774Z,100895.20
2022-09-23T11:56:07.106Z,100886.81
2022-09-23T11:58:49.050Z,100882.52
2022-09-23T12:01:37.330Z,100882.45
2022-09-23T12:04:23.394Z,100881.89
2022-09-23T12:06:58.801Z,100881.36
2022-09-23T12:09:56.595Z,100878.30
2022-09-23T12:12:27.121Z,100876.27
2022-09-23T12:15:04.922Z,100876.13
2022-09-23T12:17:56.198Z,100874.21
2022-09-23T12:20:42.297Z,100872.05
2022-09-23T12:23:23.781Z,100865.54
2022-09-23T12:25:54.547Z,100869.05
2022-09-23T12:28:26.720Z,100869.73
2022-09-23T12:30:56.513Z,100860.81
2022-09-23T12:33:26.482Z,100856.27
2022-09-23T12:35:54.924Z,100857.52
2022-09-23T12:38:39.488Z,100863.38
2022-09-23T12:41:38.124Z,100865.45
2022-09-23T12:44:08.265Z,100867.41
2022-09-23T12:46:34.817Z,100868.62
2022-09-23T12:49:03.612Z,100862.55
2022-09-23T12:51:32.974Z,100861.92
2022-09-23T12:54:14.201Z,100857.38
2022-09-23T12:56:40.613Z,100857.58
2022-09-23T12:59:16.235Z,100849.45
2022-09-23T13:01:44.244Z,100850.44
2022-09-23T13:04:49.424Z,100849.26
2022-09-23T13:07:34.412Z,100840.86
2022-09-23T13:10:09.057Z,100836.47
2022-09-23T13:12:39.469Z,100836.52
2022-09-23T13:15:18.038Z,100825.20
2022-09-23T13:17:44.582Z,100824.55
2022-09-23T13:20:20.323Z,100821.64
2022-09-23T13:22:49.501Z,100824.64
2022-09-23T13:25:28.423Z,100821.95
2022-09-23T13:27:57.638Z,100817.57
2022-09-23T13:30:26.778Z,100812.08
2022-09-23T13:33:09.232Z,100816.77
2022-09-23T13:35:39.687Z,100818.48
2022-09-23T13:38:25.883Z,100811.38
2022-09-23T13:41:13.503Z,100814.90
2022-09-23T13:43:43.679Z,100807.67
2022-09-23T13:46:15.816Z,100809.13
2022-09-23T13:48:45.208Z,100808.42
2022-09-23T13:51:16.986Z,100807.02
2022-09-23T13:53:52.239Z,100804.15
2022-09-23T13:56:19.116Z,100803.04
2022-09-23T13:58:45.701Z,100804.02
2022-09-23T14:01:33.626Z,100801.88
2022-09-23T14:04:02.243Z,100798.49
2022-09-23T14:06:32.072Z,100801.17
2022-09-23T14:09:02.227Z,100801.42
2022-09-23T14:11:31.674Z,100798.64
2022-09-23T14:14:06.943Z,100794.69
2022-09-23T14:16:38.406Z,100794.17
2022-09-23T14:19:06.504Z,100787.77
2022-09-23T14:21:39.129Z,100784.95
2022-09-23T14:24:19.610Z,100780.23
2022-09-23T14:27:06.168Z,100772.67
2022-09-23T14:29:36.722Z,100773.55
2022-09-23T14:32:16.465Z,100775.84
2022-09-23T14:35:03.259Z,100776.12
2022-09-23T14:37:55.696Z,100777.74
2022-09-23T14:40:29.128Z,100778.50
2022-09-23T14:42:55.594Z,100778.56
2022-09-23T14:45:25.743Z,100780.07
2022-09-23T14:47:58.411Z,100778.81
2022-09-23T14:50:37.800Z,100777.60
2022-09-23T14:53:06.310Z,100778.41
2022-09-23T14:55:33.295Z,100772.98
2022-09-23T14:58:06.112Z,100773.36
2022-09-23T15:00:32.983Z,100774.30
2022-09-23T15:03:02.536Z,100773.95
2022-09-23T15:05:41.909Z,100768.63
2022-09-23T15:08:13.289Z,100767.05
2022-09-23T15:10:40.749Z,100762.61
2022-09-23T15:13:12.722Z,100761.44
2022-09-23T15:15:42.080Z,100760.11
2022-09-23T15:18:18.712Z,100758.48
2022-09-23T15:21:06.898Z,100758.45
2022-09-23T15:23:48.342Z,100755.06
2022-09-23T15:26:17.678Z,100753.94
2022-09-23T15:28:45.127Z,100752.42
2022-09-23T15:31:16.333Z,100753.39
2022-09-23T15:33:50.380Z,100749.41
2022-09-23T15:36:25.890Z,100750.33
2022-09-23T15:38:53.043Z,100748.77
2022-09-23T15:41:19.722Z,100745.42
2022-09-23T15:43:46.975Z,100744.13
2022-09-23T15:46:22.697Z,100741.59
2022-09-23T15:49:02.838Z,100741.46
2022-09-23T15:51:29.467Z,100735.57
2022-09-23T15:53:56.555Z,100737.55
2022-09-23T15:56:24.389Z,100734.23
2022-09-23T15:58:51.354Z,100734.39
2022-09-23T16:01:26.566Z,100734.27
2022-09-23T16:03:53.459Z,100728.25
2022-09-23T16:06:20.356Z,100732.42
2022-09-23T16:08:48.766Z,100730.71
2022-09-23T16:11:22.792Z,100733.19
2022-09-23T16:13:49.659Z,100735.07
2022-09-23T16:16:19.504Z,100735.71
2022-09-23T16:18:46.761Z,100735.48
2022-09-23T16:21:14.713Z,100733.85
2022-09-23T16:23:43.722Z,100734.19
2022-09-23T16:26:20.707Z,100737.14
2022-09-23T16:28:48.813Z,100733.94
2022-09-23T16:31:16.508Z,100728.66
2022-09-23T16:33:44.596Z,100728.42
2022-09-23T16:36:32.193Z,100726.70
2022-09-23T16:39:00.441Z,100728.95
2022-09-23T16:41:34.391Z,100725.98
2022-09-23T16:44:04.385Z,100726.35
2022-09-23T16:46:31.468Z,100725.52
2022-09-23T16:48:59.301Z,100726.35
2022-09-23T16:51:31.604Z,100724.02
2022-09-23T16:53:59.427Z,100721.23
2022-09-23T16:56:28.813Z,100722.27
2022-09-23T16:58:56.341Z,100720.16
2022-09-23T17:01:46.982Z,100716.23
2022-09-23T17:04:16.116Z,100719.44
2022-09-23T17:06:50.932Z,100721.91
2022-09-23T17:09:19.867Z,100722.66
2022-09-23T17:11:48.937Z,100728.27
2022-09-23T17:14:16.010Z,100721.38
2022-09-23T17:16:43.490Z,100720.02
2022-09-23T17:19:12.103Z,100717.77
2022-09-23T17:21:38.989Z,100719.59
2022-09-23T17:24:06.422Z,100720.30
2022-09-23T17:26:33.675Z,100715.83
2022-09-23T17:29:01.634Z,100719.59
2022-09-23T17:31:28.644Z,100715.08
2022-09-23T17:33:55.170Z,100717.35
2022-09-23T17:36:21.951Z,100719.16
2022-09-23T17:38:49.803Z,100715.85
2022-09-23T17:41:17.353Z,100716.94
2022-09-23T17:43:44.677Z,100716.44
2022-09-23T17:46:14.785Z,100714.36
2022-09-23T17:48:43.367Z,100713.97
2022-09-23T17:51:16.054Z,100714.80
2022-09-23T17:53:45.396Z,100717.95
2022-09-23T17:56:16.696Z,100718.68
2022-09-23T17:58:44.611Z,100719.62
2022-09-23T18:01:14.122Z,100714.97
2022-09-23T18:03:44.109Z,100714.04
2022-09-23T18:06:19.448Z,100712.95
2022-09-23T18:08:48.150Z,100711.27
2022-09-23T18:11:23.157Z,100714.23
2022-09-23T18:13:49.570Z,100710.38
2022-09-23T18:16:17.275Z,100713.85
2022-09-23T18:18:44.664Z,100716.65
2022-09-23T18:21:11.186Z,100718.16
2022-09-23T18:23:37.741Z,100720.19
2022-09-23T18:26:14.012Z,100717.06
2022-09-23T18:28:40.823Z,100715.10
2022-09-23T18:31:07.562Z,100718.09
2022-09-23T18:33:34.128Z,100713.54
2022-09-23T18:36:01.417Z,100718.95
2022-09-23T18:38:28.015Z,100721.86
2022-09-23T18:40:59.563Z,100719.18
2022-09-23T18:43:37.498Z,100719.40
2022-09-23T18:46:15.000Z,100718.58
2022-09-23T18:49:00.708Z,100717.29
2022-09-23T18:51:29.273Z,100719.40
2022-09-23T18:53:58.457Z,100720.98
2022-09-23T18:56:29.602Z,100719.59
2022-09-23T18:58:56.527Z,100716.92
2022-09-23T19:01:24.089Z,100719.77
2022-09-23T19:03:57.786Z,100719.11
2022-09-23T19:06:24.960Z,100719.83
2022-09-23T19:08:53.075Z,100719.59
2022-09-23T19:11:20.544Z,100715.14
2022-09-23T19:13:51.994Z,100713.88
2022-09-23T19:16:18.828Z,100712.82
2022-09-23T19:18:48.937Z,100713.39
2022-09-23T19:21:17.665Z,100712.31
2022-09-23T19:23:57.688Z,100711.02
2022-09-23T19:26:26.939Z,100710.29
2022-09-23T19:28:55.553Z,100710.98
2022-09-23T19:31:25.271Z,100707.65
2022-09-23T19:33:59.969Z,100708.89
2022-09-23T19:36:34.672Z,100706.43
2022-09-23T19:39:04.316Z,100704.08
2022-09-23T19:41:35.461Z,100705.84
2022-09-23T19:44:03.270Z,100701.02
2022-09-23T19:46:31.232Z,100702.50
2022-09-23T19:48:58.583Z,100697.89
2022-09-23T19:51:25.361Z,100697.94
2022-09-23T19:53:52.679Z,100698.23
2022-09-23T19:56:19.717Z,100696.99
2022-09-23T19:58:48.128Z,100694.69
2022-09-23T20:01:16.277Z,100695.59
2022-09-23T20:03:47.141Z,100692.79
2022-09-23T20:06:15.244Z,100687.12
2022-09-23T20:08:42.105Z,100685.67
2022-09-23T20:11:27.631Z,100682.19
2022-09-23T20:14:04.839Z,100677.59
2022-09-23T20:16:33.619Z,100671.21
2022-09-23T20:19:01.265Z,100666.94
2022-09-23T20:21:29.482Z,100663.73
2022-09-23T20:23:57.326Z,100657.27
2022-09-23T20:26:42.701Z,100654.96
2022-09-23T20:29:10.666Z,100653.53
2022-09-23T20:31:37.498Z,100648.23
2022-09-23T20:34:06.968Z,100647.46
2022-09-23T20:36:35.461Z,100646.44
2022-09-23T20:39:05.793Z,100641.55
2022-09-23T20:41:36.671Z,100641.20
2022-09-23T20:44:05.741Z,100639.54
2022-09-23T20:46:33.775Z,100638.59
2022-09-23T20:49:01.912Z,100640.84
2022-09-23T20:51:28.569Z,100642.52
2022-09-23T20:53:55.983Z,100639.48
2022-09-23T20:56:23.405Z,100640.43
2022-09-23T20:58:52.492Z,100639.08
2022-09-23T21:01:19.380Z,100638.86
2022-09-23T21:03:48.630Z,100638.19
2022-09-23T21:06:19.467Z,100642.06
2022-09-23T21:08:46.888Z,100642.35
2022-09-23T21:11:16.780Z,100639.34
2022-09-23T21:13:48.249Z,100639.52
2022-09-23T21:16:16.992Z,100636.77
2022-09-23T21:18:44.857Z,100637.63
2022-09-23T21:21:13.991Z,100637.20
2022-09-23T21:23:41.867Z,100634.91
2022-09-23T21:26:12.635Z,100634.86
2022-09-23T21:28:44.040Z,100630.76
2022-09-23T21:31:14.950Z,100631.42
2022-09-23T21:33:41.994Z,100628.75
2022-09-23T21:36:09.918Z,100628.05
2022-09-23T21:38:37.651Z,100625.74
2022-09-23T21:41:09.968Z,100628.49
2022-09-23T21:43:40.547Z,100628.56
2022-09-23T21:46:09.807Z,100630.70
2022-09-23T21:48:39.872Z,100632.54
2022-09-23T21:51:12.883Z,100633.28
2022-09-23T21:53:40.867Z,100638.90
2022-09-23T21:56:11.407Z,100635.83
2022-09-23T21:58:39.536Z,100635.04
2022-09-23T22:01:11.417Z,100632.05
2022-09-23T22:03:38.864Z,100631.02
2022-09-23T22:06:11.291Z,100627.48
2022-09-23T22:08:40.424Z,100627.98
2022-09-23T22:11:29.918Z,100627.32
2022-09-23T22:13:57.863Z,100632.08
2022-09-23T22:16:24.927Z,100631.17
2022-09-23T22:18:55.211Z,100633.59
2022-09-23T22:21:26.611Z,100630.88
2022-09-23T22:23:54.582Z,100628.07
2022-09-23T22:26:21.137Z,100628.16
2022-09-23T22:29:06.617Z,100621.88
2022-09-23T22:31:51.934Z,100622.22
2022-09-23T22:34:47.464Z,100620.98
2022-09-23T22:37:06.782Z,100618.88
2022-09-23T22:39:33.701Z,100622.45
2022-09-23T22:42:00.074Z,100618.20
2022-09-23T22:44:26.747Z,100619.40
2022-09-23T22:46:53.610Z,100622.06
2022-09-23T22:49:20.490Z,100618.73
2022-09-23T22:51:47.219Z,100618.79
2022-09-23T22:54:13.974Z,100614.76
2022-09-23T22:56:40.986Z,100614.75
2022-09-23T22:59:10.232Z,100611.63
2022-09-23T23:01:37.275Z,100612.46
2022-09-23T23:04:05.583Z,100612.33
2022-09-23T23:06:37.047Z,100610.33
2022-09-23T23:09:13.145Z,100601.75
2022-09-23T23:11:42.095Z,100602.59
2022-09-23T23:14:09.668Z,100601.05
2022-09-23T23:16:37.274Z,100600.52
2022-09-23T23:19:06.664Z,100602.84
2022-09-23T23:21:33.987Z,100602.11
2022-09-23T23:24:01.012Z,100600.08
2022-09-23T23:26:28.912Z,100600.67
2022-09-23T23:28:56.685Z,100597.48
2022-09-23T23:31:26.393Z,100593.41
2022-09-23T23:33:53.743Z,100595.33
2022-09-23T23:36:22.483Z,100594.34
2022-09-23T23:38:51.519Z,100595.16
2022-09-23T23:41:22.601Z,100602.50
2022-09-23T23:43:58.186Z,100605.49
2022-09-23T23:46:27.641Z,100605.61
2022-09-23T23:48:55.615Z,100604.23
2022-09-23T23:51:22.981Z,100605.95
2022-09-23T23:53:50.158Z,100599.58
2022-09-23T23:56:19.332Z,100602.48
2022-09-23T23:58:46.347Z,100603.88
